Time;durP1;ratioP1;P1;durP2;ratioP2;P2;SDS_P1;SDS_P2;PMS_P1;PMS_P2;Temp;Humidity;BMP_temperature;BMP_pressure;BME280_temperature;BME280_humidity;BME280_pressure;Samples;Min_cycle;Max_cycle;Signal;HPM_P1;HPM_P2
2022/05/04 00:01:50;;;;;;;8.23;5.90;;;8.80;96.80;;;8.74;66.48;95041.19;5051549;28;20804;-56
2022/05/04 00:04:17;;;;;;;5.30;4.80;;;8.80;96.30;;;8.71;66.51;95036.19;5051135;28;21026;-54
2022/05/04 00:06:44;;;;;;;8.53;5.00;;;8.80;96.50;;;8.68;66.60;95042.50;5049988;28;20483;-55
2022/05/04 00:09:12;;;;;;;10.63;5.73;;;8.70;96.70;;;8.65;66.19;95040.13;5053308;28;20463;-57
2022/05/04 00:11:41;;;;;;;9.73;6.10;;;8.70;96.40;;;8.61;66.46;95042.19;5060060;28;20479;-56
2022/05/04 00:14:08;;;;;;;7.10;5.30;;;8.70;96.20;;;8.56;65.73;95046.94;5051191;28;20447;-55
2022/05/04 00:16:36;;;;;;;6.77;4.83;;;8.60;96.10;;;8.51;65.81;95050.91;5062170;28;20498;-56
2022/05/04 00:19:03;;;;;;;5.73;5.00;;;8.60;96.00;;;8.43;66.42;95041.00;5048314;28;20464;-56
2022/05/04 00:21:30;;;;;;;9.07;5.13;;;8.50;96.10;;;8.40;66.29;95047.31;5050914;28;20512;-57
2022/05/04 00:23:57;;;;;;;10.50;4.70;;;8.50;96.30;;;8.39;66.65;95050.03;5051128;28;20577;-56
2022/05/04 00:26:24;;;;;;;5.30;4.80;;;8.40;96.60;;;8.40;66.94;95046.47;5056925;28;20475;-57
2022/05/04 00:28:53;;;;;;;6.50;5.57;;;8.40;96.70;;;8.42;66.83;95055.03;5058514;28;20898;-59
2022/05/04 00:31:20;;;;;;;7.43;5.93;;;8.40;96.80;;;8.41;66.62;95054.22;5056091;28;20492;-57
2022/05/04 00:33:47;;;;;;;11.27;5.50;;;8.40;96.80;;;8.41;67.02;95053.38;5047048;28;20979;-55
2022/05/04 00:36:15;;;;;;;9.13;6.47;;;8.50;96.90;;;8.43;66.68;95059.34;5054506;28;20509;-56
2022/05/04 00:38:42;;;;;;;9.73;6.20;;;8.50;96.80;;;8.42;66.62;95055.03;5053427;28;20466;-54
2022/05/04 00:41:09;;;;;;;10.60;6.40;;;8.50;96.70;;;8.42;66.35;95065.53;5054436;28;20888;-57
2022/05/04 00:43:36;;;;;;;8.37;7.13;;;8.50;96.70;;;8.40;67.24;95060.41;5048536;28;20462;-56
2022/05/04 00:46:05;;;;;;;8.93;6.60;;;8.40;96.80;;;8.39;66.63;95060.53;5055112;28;20475;-55
2022/05/04 00:48:34;;;;;;;6.00;5.07;;;8.40;96.60;;;8.37;66.48;95070.31;5054052;28;20474;-56
2022/05/04 00:51:01;;;;;;;5.90;5.30;;;8.40;96.60;;;8.36;67.32;95068.63;5057201;28;20478;-56
2022/05/04 00:53:28;;;;;;;8.67;5.73;;;8.40;96.70;;;8.33;67.18;95071.50;5050840;28;20456;-55
2022/05/04 00:55:59;;;;;;;7.93;5.13;;;8.40;96.70;;;8.31;67.07;95065.56;5060741;28;20495;-56
2022/05/04 01:01:13;;;;;;;5.37;4.80;;;8.30;96.40;;;8.25;66.37;95072.09;5057211;28;20536;-56
2022/05/04 01:03:40;;;;;;;6.30;4.93;;;8.30;96.40;;;8.22;66.39;95065.31;5056384;28;20447;-54
2022/05/04 01:06:07;;;;;;;7.93;4.40;;;8.30;96.40;;;8.21;66.56;95075.91;5046701;28;20472;-56
2022/05/04 01:08:34;;;;;;;4.30;3.90;;;8.30;96.40;;;8.19;66.67;95069.97;5062236;28;20490;-55
2022/05/04 01:11:02;;;;;;;7.80;4.20;;;8.30;96.40;;;8.16;66.93;95073.66;5052665;28;20487;-56
2022/05/04 01:13:29;;;;;;;10.83;4.90;;;8.20;96.30;;;8.14;66.32;95067.69;5059429;28;20795;-56
2022/05/04 01:15:56;;;;;;;7.53;4.10;;;8.20;96.40;;;8.12;66.41;95074.84;5056667;28;20501;-55
2022/05/04 01:18:25;;;;;;;6.30;4.20;;;8.20;96.40;;;8.11;66.82;95067.94;5059204;28;20459;-57
2022/05/04 01:20:52;;;;;;;5.10;4.17;;;8.20;96.50;;;8.11;66.35;95075.81;5051005;28;20547;-55
2022/05/04 01:23:20;;;;;;;4.20;3.80;;;8.10;96.50;;;8.08;66.56;95065.56;5047799;28;20884;-56
2022/05/04 01:25:48;;;;;;;4.90;4.17;;;8.20;96.60;;;8.07;66.70;95071.75;5057098;28;21122;-55
2022/05/04 01:28:15;;;;;;;4.67;4.27;;;8.10;96.60;;;8.06;66.53;95075.34;5055176;28;20551;-54
2022/05/04 01:30:42;;;;;;;4.10;3.70;;;8.10;96.80;;;8.05;67.04;95073.66;5050623;28;20487;-57
2022/05/04 01:33:10;;;;;;;23.53;4.63;;;8.10;96.70;;;8.05;66.65;95073.66;5058462;28;20455;-55
2022/05/04 01:35:38;;;;;;;4.83;3.87;;;8.10;96.70;;;8.03;66.70;95063.31;5059915;28;20999;-56
2022/05/04 01:38:06;;;;;;;4.90;4.23;;;8.10;96.80;;;8.03;67.34;95065.09;5056712;28;20975;-56
2022/05/04 01:40:34;;;;;;;4.67;4.27;;;8.10;96.80;;;8.02;67.14;95066.03;5059969;28;20473;-57
2022/05/04 01:43:01;;;;;;;8.43;3.70;;;8.10;96.80;;;8.02;67.24;95071.28;5045746;28;21170;-57
2022/05/04 01:45:28;;;;;;;4.87;4.10;;;8.10;96.80;;;8.01;66.91;95072.22;5062812;28;21380;-56
2022/05/04 01:47:55;;;;;;;7.07;5.13;;;8.10;96.80;;;8.00;67.00;95065.34;5055664;28;20459;-55
2022/05/04 01:50:23;;;;;;;6.53;5.50;;;8.10;96.80;;;7.98;66.76;95064.59;5056795;28;20479;-56
2022/05/04 01:52:50;;;;;;;5.27;4.77;;;8.10;96.80;;;7.97;67.34;95065.56;5049342;28;20972;-58
2022/05/04 01:55:17;;;;;;;7.10;4.33;;;8.00;96.80;;;7.93;66.56;95057.09;5047530;28;20482;-55
2022/05/04 01:57:46;;;;;;;6.70;4.63;;;8.00;96.60;;;7.87;66.46;95061.03;5048945;28;20451;-56
2022/05/04 02:00:14;;;;;;;4.50;4.00;;;7.90;96.50;;;7.82;67.10;95060.59;5049722;28;20484;-56
2022/05/04 02:02:41;;;;;;;4.80;4.20;;;7.90;96.70;;;7.82;67.28;95057.97;5051041;28;20463;-55
2022/05/04 02:05:10;;;;;;;5.60;4.17;;;7.90;96.90;;;7.81;67.04;95058.06;5056039;28;20484;-55
2022/05/04 02:07:37;;;;;;;4.73;4.30;;;7.90;97.00;;;7.81;67.83;95048.44;5055163;28;20463;-55
2022/05/04 02:10:05;;;;;;;5.10;4.50;;;7.90;97.50;;;7.81;67.41;95058.91;5058095;28;20476;-56
2022/05/04 02:12:34;;;;;;;8.10;4.83;;;7.90;97.00;;;7.80;67.68;95054.59;5046132;28;20456;-55
2022/05/04 02:15:03;;;;;;;6.17;4.80;;;7.90;96.90;;;7.78;67.78;95056.53;5052116;28;20953;-55
2022/05/04 02:17:30;;;;;;;5.10;4.47;;;7.90;97.00;;;7.76;67.81;95058.44;5045128;28;20509;-57
2022/05/04 02:19:57;;;;;;;7.50;5.03;;;7.90;97.00;;;7.77;67.55;95059.25;5050761;28;20915;-56
2022/05/04 02:22:24;;;;;;;5.57;4.07;;;7.80;96.90;;;7.77;67.58;95057.47;5052515;28;20454;-56
2022/05/04 02:24:52;;;;;;;5.67;5.17;;;7.80;97.00;;;7.77;67.63;95064.50;5048682;28;20602;-57
2022/05/04 02:27:19;;;;;;;7.63;4.63;;;7.80;97.40;;;7.77;67.40;95062.69;5052256;28;20490;-56
2022/05/04 02:29:46;;;;;;;10.40;5.07;;;7.90;97.10;;;7.78;67.62;95066.16;5053668;28;20452;-54
2022/05/04 02:32:15;;;;;;;7.53;5.77;;;7.90;97.50;;;7.78;67.88;95067.00;5055407;28;20481;-56
2022/05/04 02:40:10;;;;;;;5.87;4.17;;;7.80;97.10;;;7.76;67.40;95061.06;5059805;28;20854;-55
2022/05/04 02:42:37;;;;;;;9.30;5.00;;;7.90;97.20;;;7.76;67.56;95052.34;5050979;28;20509;-55
2022/05/04 02:45:05;;;;;;;5.20;4.80;;;7.80;97.10;;;7.76;67.20;95058.44;5053778;28;20976;-57
2022/05/04 02:47:34;;;;;;;6.93;4.87;;;7.80;97.10;;;7.75;67.22;95056.75;5056322;28;20463;-55
2022/05/04 02:50:01;;;;;;;10.37;4.80;;;7.80;97.10;;;7.75;67.46;95067.22;5051429;28;20553;-56
2022/05/04 02:52:29;;;;;;;11.00;5.07;;;7.80;97.10;;;7.74;67.28;95075.19;5050067;28;20460;-55
2022/05/04 02:54:56;;;;;;;5.13;4.50;;;7.80;97.10;;;7.70;67.50;95070.19;5053463;28;20485;-56
2022/05/04 02:57:23;;;;;;;9.00;5.80;;;7.80;97.00;;;7.67;66.97;95082.69;5059651;28;20490;-56
2022/05/04 02:59:50;;;;;;;10.93;5.27;;;7.80;96.90;;;7.65;67.62;95074.09;5058557;28;20512;-56
2022/05/04 03:02:28;;;;;;;5.27;4.80;;;7.70;96.80;;;7.63;67.50;95084.69;5047551;28;20470;-56
2022/05/04 03:04:58;;;;;;;9.93;5.20;;;7.70;97.00;;;7.62;67.29;95090.03;5057694;28;21088;-55
2022/05/04 03:07:26;;;;;;;11.47;4.63;;;7.70;96.90;;;7.60;67.40;95098.00;5053434;28;20467;-54
2022/05/04 03:09:53;;;;;;;4.77;4.37;;;7.70;97.00;;;7.60;67.78;95105.03;5063325;28;20459;-55
2022/05/04 03:12:20;;;;;;;5.80;5.20;;;7.70;97.10;;;7.57;67.72;95108.72;5063672;28;20884;-56
2022/05/04 03:14:47;;;;;;;10.63;5.50;;;7.70;96.60;;;7.53;67.32;95100.28;5049924;28;20977;-56
2022/05/04 03:17:15;;;;;;;9.40;5.90;;;7.60;96.70;;;7.49;66.84;95105.84;5056569;28;20513;-56
2022/05/04 03:19:42;;;;;;;11.87;5.70;;;7.60;96.60;;;7.41;66.69;95095.97;5051864;28;20463;-55
2022/05/04 03:22:11;;;;;;;6.60;5.13;;;7.50;96.40;;;7.33;67.20;95107.00;5052528;28;20463;-56
2022/05/04 03:24:38;;;;;;;11.53;6.27;;;7.50;96.50;;;7.24;66.55;95099.81;5063375;28;20970;-55
2022/05/04 03:27:07;;;;;;;7.90;5.20;;;7.40;96.50;;;7.17;66.90;95109.91;5057541;28;20559;-56
2022/05/04 03:29:34;;;;;;;7.30;4.67;;;7.30;96.50;;;7.13;67.00;95113.69;5058658;28;20474;-55
2022/05/04 03:32:03;;;;;;;8.53;6.03;;;7.30;96.50;;;7.09;66.84;95116.66;5047288;28;20849;-57
2022/05/04 03:34:30;;;;;;;7.57;5.83;;;7.20;96.60;;;7.05;67.72;95123.91;5048694;28;20455;-56
2022/05/04 03:36:59;;;;;;;8.53;5.50;;;7.20;96.90;;;7.08;68.25;95121.06;5054731;28;20494;-57
2022/05/04 03:39:27;;;;;;;23.80;7.80;;;7.20;97.20;;;7.12;68.17;95113.81;5057454;28;20478;-55
2022/05/04 03:41:54;;;;;;;6.43;5.03;;;7.20;97.60;;;7.19;68.34;95125.50;5043494;28;20525;-56
2022/05/04 03:44:22;;;;;;;17.13;5.10;;;7.20;97.60;;;7.25;68.27;95121.59;5067972;28;20871;-54
2022/05/04 03:46:50;;;;;;;11.67;5.67;;;7.30;97.60;;;7.32;68.32;95122.81;5056931;28;20475;-55
2022/05/04 03:49:19;;;;;;;11.33;5.83;;;7.40;97.60;;;7.40;67.72;95130.09;5063533;28;20943;-55
2022/05/04 03:51:46;;;;;;;8.63;6.33;;;7.40;97.60;;;7.46;68.51;95125.22;5057619;28;20528;-55
2022/05/04 03:54:14;;;;;;;13.63;6.40;;;7.50;97.60;;;7.54;67.81;95115.03;5063553;28;20482;-55
2022/05/04 03:56:42;;;;;;;13.37;7.57;;;7.60;97.50;;;7.60;67.03;95118.97;5059456;28;20488;-56
2022/05/04 03:59:10;;;;;;;8.27;6.00;;;7.60;97.40;;;7.66;67.41;95118.50;5054249;28;20533;-56
2022/05/04 04:01:37;;;;;;;10.10;6.20;;;7.70;97.10;;;7.72;67.32;95120.66;5056762;28;20538;-56
2022/05/04 04:04:05;;;;;;;9.60;7.10;;;7.80;97.00;;;7.76;66.86;95121.28;5046515;28;20463;-56
2022/05/04 04:06:33;;;;;;;10.27;6.87;;;7.80;96.70;;;7.78;66.43;95123.78;5047847;28;21019;-56
2022/05/04 04:09:00;;;;;;;6.63;5.30;;;7.80;96.50;;;7.78;66.19;95124.59;5052007;28;20538;-56
2022/05/04 04:11:29;;;;;;;11.07;6.87;;;7.90;96.40;;;7.80;66.41;95137.56;5054981;28;21123;-56
2022/05/04 04:13:58;;;;;;;8.27;6.47;;;7.90;96.20;;;7.80;66.57;95143.63;5055047;28;20452;-54
2022/05/04 04:16:25;;;;;;;7.63;5.83;;;7.90;96.30;;;7.81;65.88;95137.47;5055204;28;20479;-56
2022/05/04 04:18:52;;;;;;;10.83;7.00;;;7.90;96.20;;;7.82;66.34;95136.53;5050198;28;20461;-55
2022/05/04 04:24:05;;;;;;;7.97;6.57;;;7.90;96.00;;;7.83;65.96;95148.63;5049820;28;20895;-56
2022/05/04 04:26:33;;;;;;;12.20;6.20;;;7.90;96.00;;;7.82;66.17;95149.59;5049824;28;20467;-56
2022/05/04 04:29:01;;;;;;;10.33;6.07;;;7.90;96.10;;;7.82;65.64;95146.13;5051188;28;20967;-57
2022/05/04 04:31:29;;;;;;;13.37;6.40;;;7.90;95.90;;;7.82;65.72;95147.00;5054551;28;20483;-56
2022/05/04 04:33:56;;;;;;;19.50;7.03;;;7.90;96.00;;;7.85;66.34;95164.22;5054375;28;20448;-56
2022/05/04 04:36:24;;;;;;;8.57;6.17;;;7.90;96.00;;;7.89;65.57;95165.69;5058474;28;20534;-56
2022/05/04 04:38:51;;;;;;;13.40;6.63;;;7.90;96.00;;;7.90;65.99;95160.31;5048934;28;20457;-57
2022/05/04 04:41:19;;;;;;;20.23;7.33;;;8.00;96.10;;;7.96;66.26;95160.81;5054874;28;20894;-56
2022/05/04 04:43:46;;;;;;;21.80;8.13;;;8.00;96.00;;;8.00;65.62;95154.38;5054020;28;20455;-55
2022/05/04 04:46:15;;;;;;;17.63;6.10;;;8.00;95.90;;;8.05;65.39;95162.72;5052244;28;20487;-56
2022/05/04 04:48:42;;;;;;;17.03;6.27;;;8.10;95.80;;;8.05;65.34;95157.47;5055422;28;21134;-56
2022/05/04 04:51:09;;;;;;;11.20;6.70;;;8.10;95.70;;;8.03;65.93;95149.75;5039971;28;21039;-56
2022/05/04 04:53:38;;;;;;;11.27;6.00;;;8.10;95.70;;;8.05;65.85;95147.00;5037924;28;20467;-56
2022/05/04 04:56:06;;;;;;;11.90;6.13;;;8.10;96.00;;;8.09;66.25;95151.06;5043001;28;20487;-55
2022/05/04 04:58:33;;;;;;;11.53;5.70;;;8.10;95.90;;;8.11;65.52;95146.53;5046614;28;20458;-56
2022/05/04 05:01:01;;;;;;;10.20;6.33;;;8.20;95.80;;;8.11;65.88;95151.78;5052765;28;21353;-57
2022/05/04 05:03:29;;;;;;;15.27;7.03;;;8.20;95.90;;;8.12;65.78;95157.84;5046889;28;20479;-57
2022/05/04 05:05:57;;;;;;;9.03;6.70;;;8.20;96.00;;;8.16;65.73;95167.97;5057453;28;20854;-55
2022/05/04 05:08:24;;;;;;;13.60;6.67;;;8.20;96.20;;;8.24;66.02;95167.38;5054257;28;21016;-58
2022/05/04 05:10:51;;;;;;;11.17;6.83;;;8.30;96.50;;;8.33;66.20;95166.66;5056858;28;20471;-56
2022/05/04 05:13:18;;;;;;;11.33;7.20;;;8.30;96.50;;;8.42;65.92;95171.19;5054998;28;20537;-58
2022/05/04 05:18:32;;;;;;;8.67;5.30;;;8.50;96.20;;;8.56;65.41;95164.91;5054093;28;20961;-55
2022/05/04 05:20:59;;;;;;;6.50;5.80;;;8.60;96.10;;;8.63;65.68;95167.06;5059399;28;20922;-56
2022/05/04 05:23:27;;;;;;;12.17;5.90;;;8.60;96.10;;;8.70;65.34;95168.25;5048343;28;20459;-57
2022/05/04 05:25:55;;;;;;;11.33;6.93;;;8.70;96.10;;;8.79;65.74;95164.91;5061088;28;20467;-54
2022/05/04 05:28:22;;;;;;;7.40;5.93;;;8.80;96.10;;;8.90;65.59;95170.13;5050371;28;20464;-55
2022/05/04 05:30:49;;;;;;;12.53;6.30;;;8.90;96.20;;;9.01;65.67;95165.81;5061052;28;21062;-56
2022/05/04 05:33:16;;;;;;;7.73;6.30;;;9.00;96.00;;;9.18;65.33;95156.59;5050267;28;20455;-56
2022/05/04 05:35:45;;;;;;;6.37;5.80;;;9.10;96.20;;;9.36;65.01;95162.13;5059479;28;20555;-56
2022/05/04 05:38:12;;;;;;;9.90;6.60;;;9.30;95.70;;;9.51;64.30;95166.97;5050615;28;20507;-55
2022/05/04 05:40:40;;;;;;;10.13;7.03;;;9.40;95.50;;;9.69;64.53;95171.66;5048938;28;20467;-56
2022/05/04 05:43:07;;;;;;;10.37;6.60;;;9.60;95.80;;;9.89;64.61;95162.13;5055273;28;20762;-57
2022/05/04 05:45:34;;;;;;;8.40;6.20;;;9.80;95.80;;;10.10;64.44;95158.63;5056971;28;20475;-56
2022/05/04 05:48:01;;;;;;;13.80;8.00;;;10.00;95.10;;;10.28;64.05;95167.59;5062557;28;20451;-57
2022/05/04 05:50:28;;;;;;;18.93;6.50;;;10.10;94.60;;;10.47;63.88;95171.31;5057125;28;21046;-54
2022/05/04 05:52:57;;;;;;;11.90;6.50;;;10.30;94.60;;;10.67;63.37;95159.06;5062758;28;20451;-57
2022/05/04 05:55:25;;;;;;;8.30;6.60;;;10.50;94.50;;;10.83;63.51;95162.03;5049689;28;20546;-56
2022/05/04 05:57:52;;;;;;;8.53;6.80;;;10.70;94.80;;;11.03;62.72;95159.44;5044644;28;21130;-56
2022/05/04 06:00:19;;;;;;;11.63;8.27;;;10.80;94.00;;;11.21;62.67;95160.44;5056909;28;20486;-54
2022/05/04 06:02:47;;;;;;;9.40;8.03;;;11.00;94.00;;;11.38;62.31;95156.28;5053607;28;20455;-56
2022/05/04 06:05:14;;;;;;;12.80;7.90;;;11.20;93.70;;;11.55;62.11;95157.41;5059643;28;20532;-54
2022/05/04 06:07:42;;;;;;;13.70;8.33;;;11.40;93.80;;;11.73;61.86;95165.47;5061949;28;20451;-55
2022/05/04 06:10:11;;;;;;;10.77;8.47;;;11.50;93.30;;;11.94;61.42;95167.13;5057602;28;20916;-55
2022/05/04 06:12:39;;;;;;;19.40;8.90;;;11.70;93.10;;;12.12;61.23;95165.44;5060502;28;20939;-53
2022/05/04 06:15:08;;;;;;;16.07;8.73;;;11.90;93.10;;;12.34;60.86;95166.91;5063520;28;20554;-56
2022/05/04 06:17:36;;;;;;;12.10;8.23;;;12.10;92.80;;;12.53;60.68;95167.81;5058941;28;20491;-56
2022/05/04 06:20:05;;;;;;;14.40;7.77;;;12.30;92.50;;;12.70;60.07;95163.59;5060594;28;20466;-54
2022/05/04 06:22:32;;;;;;;8.00;7.20;;;12.50;92.30;;;12.91;60.13;95168.63;5060418;28;20913;-57
2022/05/04 06:25:00;;;;;;;19.23;8.87;;;12.60;92.10;;;13.07;59.94;95162.72;5061526;28;20531;-54
2022/05/04 06:27:29;;;;;;;20.47;8.30;;;12.80;92.00;;;13.23;59.28;95157.63;5053735;28;20463;-57
2022/05/04 06:35:26;;;;;;;17.13;8.20;;;13.30;91.00;;;13.75;58.34;95161.44;5057589;28;20455;-54
2022/05/04 06:37:53;;;;;;;17.73;7.83;;;13.50;90.70;;;13.92;58.32;95154.47;5061810;28;20503;-55
2022/05/04 06:40:21;;;;;;;11.57;7.30;;;13.70;90.60;;;14.02;57.15;95159.66;5062739;28;20699;-57
2022/05/04 06:42:50;;;;;;;12.20;7.33;;;13.80;90.00;;;13.99;56.87;95161.63;5056718;28;20450;-56
2022/05/04 06:45:17;;;;;;;19.10;7.57;;;13.80;88.40;;;13.98;57.12;95164.44;5056649;28;20884;-56
2022/05/04 06:47:45;;;;;;;10.93;7.17;;;13.80;89.00;;;14.07;57.20;95150.28;5058913;28;20955;-56
2022/05/04 06:50:12;;;;;;;21.63;8.00;;;13.80;89.30;;;14.24;57.74;95147.75;5058220;28;20463;-55
2022/05/04 06:52:40;;;;;;;10.87;6.03;;;14.00;90.10;;;14.39;57.17;95161.22;5060144;28;20523;-55
2022/05/04 06:55:09;;;;;;;7.60;6.50;;;14.10;89.50;;;14.45;56.64;95157.97;5060558;28;20528;-56
2022/05/04 06:57:36;;;;;;;15.63;6.60;;;14.20;88.20;;;14.49;56.57;95161.97;5053177;28;20499;-56
2022/05/04 07:00:06;;;;;;;9.07;6.53;;;14.20;87.80;;;14.59;56.85;95178.56;5055003;28;20561;-57
2022/05/04 07:02:34;;;;;;;11.93;7.63;;;14.30;88.70;;;14.80;56.39;95158.84;5057620;28;20471;-57
2022/05/04 07:05:01;;;;;;;14.40;8.53;;;14.50;88.10;;;15.03;56.06;95164.41;5057869;28;20467;-55
2022/05/04 07:07:29;;;;;;;7.10;6.43;;;14.70;87.70;;;15.26;55.82;95151.41;5061177;28;20466;-56
2022/05/04 07:09:56;;;;;;;8.97;6.30;;;14.90;87.00;;;15.51;55.74;95146.16;5059201;28;20451;-57
2022/05/04 07:12:23;;;;;;;13.63;6.20;;;15.20;87.40;;;15.75;55.09;95154.13;5061163;28;20954;-55
2022/05/04 07:14:51;;;;;;;11.27;7.00;;;15.40;86.30;;;16.00;54.63;95151.50;5063321;28;20450;-57
2022/05/04 07:17:20;;;;;;;10.90;6.70;;;15.70;85.20;;;16.24;54.15;95152.50;5057944;28;20490;-57
2022/05/04 07:19:47;;;;;;;9.67;6.30;;;15.90;83.90;;;16.39;53.98;95145.50;5059128;28;20451;-56
2022/05/04 07:22:15;;;;;;;8.80;6.57;;;16.10;83.40;;;16.52;53.73;95150.28;5055813;28;20452;-56
2022/05/04 07:24:42;;;;;;;11.30;6.57;;;16.20;83.60;;;16.71;53.65;95151.72;5061666;28;20455;-56
2022/05/04 07:27:10;;;;;;;18.90;7.73;;;16.40;82.40;;;16.92;52.76;95145.88;5058194;28;20828;-55
2022/05/04 07:29:37;;;;;;;10.90;6.17;;;16.60;81.60;;;17.13;52.39;95142.59;5060359;28;20454;-56
2022/05/04 07:32:05;;;;;;;7.43;5.03;;;16.80;80.90;;;17.33;51.43;95140.34;5053069;28;20938;-56
2022/05/04 07:34:34;;;;;;;9.70;5.90;;;17.00;78.80;;;17.52;51.63;95144.41;5054877;28;20508;-56
2022/05/04 07:37:02;;;;;;;5.70;4.90;;;17.20;78.60;;;17.72;51.20;95136.78;5060171;28;21018;-56
2022/05/04 07:42:24;;;;;;;11.33;6.03;;;17.60;77.30;;;18.20;50.29;95131.28;5054616;28;20990;-57
2022/05/04 07:44:52;;;;;;;13.13;5.73;;;17.80;76.40;;;18.45;50.47;95131.84;5061070;28;20450;-57
2022/05/04 07:47:20;;;;;;;16.93;5.27;;;18.10;75.60;;;18.62;49.59;95131.66;5066426;28;20454;-56
2022/05/04 07:49:49;;;;;;;10.53;4.97;;;18.30;74.50;;;18.74;49.50;95137.38;5056922;28;20450;-57
2022/05/04 07:52:16;;;;;;;9.80;5.30;;;18.40;73.80;;;18.84;49.04;95124.59;5063080;28;20458;-57
2022/05/04 07:54:44;;;;;;;6.10;5.57;;;18.50;72.50;;;18.95;48.47;95132.16;5056723;28;20534;-58
2022/05/04 07:57:11;;;;;;;11.13;5.37;;;18.60;71.80;;;19.11;47.76;95127.63;5062185;28;21026;-58
2022/05/04 07:59:38;;;;;;;16.63;6.47;;;18.80;71.20;;;19.37;47.42;95124.47;5054402;28;20451;-57
2022/05/04 08:04:52;;;;;;;9.30;4.57;;;19.20;69.80;;;19.82;46.78;95129.66;5051045;28;20506;-57
2022/05/04 08:07:19;;;;;;;5.57;5.13;;;19.40;67.70;;;20.08;46.41;95129.09;5053568;28;20451;-57
2022/05/04 08:09:47;;;;;;;15.23;3.70;;;19.70;67.60;;;20.38;46.20;95129.72;5060640;28;20447;-56
2022/05/04 08:12:14;;;;;;;8.43;3.30;;;20.00;66.70;;;20.64;45.82;95127.44;5061769;28;20451;-58
2022/05/04 08:14:41;;;;;;;6.03;2.80;;;20.20;66.10;;;20.88;45.49;95120.81;5059647;28;20448;-57
2022/05/04 08:17:09;;;;;;;7.37;2.90;;;20.50;65.50;;;21.18;44.52;95128.56;5059995;28;20484;-57
2022/05/04 08:19:36;;;;;;;4.70;2.47;;;20.70;63.30;;;21.47;44.87;95125.59;5057116;28;20570;-57
2022/05/04 08:22:05;;;;;;;2.20;2.10;;;21.00;63.40;;;21.73;43.15;95129.38;5058802;28;21052;-56
2022/05/04 08:24:33;;;;;;;2.23;1.93;;;21.30;61.00;;;21.94;42.84;95122.22;5060411;28;20443;-57
2022/05/04 08:27:00;;;;;;;3.40;2.00;;;21.50;59.00;;;22.14;42.45;95120.38;5061553;28;20482;-57
2022/05/04 08:29:27;;;;;;;2.90;1.90;;;21.70;58.60;;;22.38;42.14;95118.13;5060630;28;20443;-57
2022/05/04 08:31:56;;;;;;;2.50;2.20;;;21.90;57.90;;;22.62;41.80;95118.50;5058261;28;20472;-58
2022/05/04 08:34:24;;;;;;;1.97;1.87;;;22.10;57.70;;;22.86;41.17;95122.38;5064387;28;20451;-57
2022/05/04 08:36:51;;;;;;;8.27;2.10;;;22.40;56.60;;;23.02;41.45;95119.25;5060015;28;20510;-57
2022/05/04 08:39:20;;;;;;;6.37;2.00;;;22.60;56.70;;;23.19;40.84;95116.97;5060080;28;20573;-58
2022/05/04 08:41:47;;;;;;;3.70;2.40;;;22.70;55.70;;;23.41;40.43;95116.66;5058358;28;20468;-58
2022/05/04 08:44:14;;;;;;;5.90;2.67;;;23.00;55.90;;;23.60;40.77;95112.22;5061853;28;20450;-57
2022/05/04 08:46:42;;;;;;;2.43;2.33;;;23.20;55.10;;;23.78;40.38;95111.47;5057845;28;20487;-58
2022/05/04 08:49:10;;;;;;;3.10;2.47;;;23.40;54.40;;;23.86;39.41;95115.78;5059020;28;20443;-58
2022/05/04 08:51:38;;;;;;;9.60;2.70;;;23.50;53.80;;;23.89;39.09;95115.34;5059768;28;20497;-57
2022/05/04 08:54:05;;;;;;;3.83;2.20;;;23.50;53.40;;;23.99;39.30;95113.84;5063509;28;20902;-57
2022/05/04 08:56:35;;;;;;;5.40;2.30;;;23.60;53.40;;;24.13;38.88;95113.75;5053066;28;20468;-57
2022/05/04 08:59:02;;;;;;;7.47;2.40;;;23.70;53.10;;;24.24;38.87;95117.59;5061081;28;20487;-56
2022/05/04 09:01:31;;;;;;;5.87;1.90;;;23.80;52.20;;;24.26;38.15;95118.19;5060427;28;20629;-56
2022/05/04 09:03:59;;;;;;;4.50;2.60;;;23.80;51.60;;;24.30;38.42;95105.97;5062133;28;20971;-57
2022/05/04 09:06:27;;;;;;;3.80;1.90;;;23.90;51.70;;;24.39;38.22;95101.97;5058776;28;20646;-57
2022/05/04 09:08:56;;;;;;;1.70;1.57;;;23.90;51.70;;;24.50;37.70;95103.09;5056271;28;20526;-57
2022/05/04 09:11:24;;;;;;;2.00;1.80;;;24.00;50.60;;;24.53;37.50;95100.78;5060321;28;20477;-57
2022/05/04 09:13:53;;;;;;;2.60;1.73;;;24.10;49.40;;;24.62;36.30;95103.25;5059380;28;20500;-56
2022/05/04 09:16:28;;;;;;;3.60;1.47;;;24.20;48.90;;;24.69;36.72;95095.91;5060397;28;20475;-57
2022/05/04 09:18:55;;;;;;;4.10;1.90;;;24.30;49.00;;;24.66;35.99;95102.56;5057967;28;20495;-57
2022/05/04 09:21:23;;;;;;;1.87;1.77;;;24.30;47.90;;;24.66;35.92;95099.88;5062446;28;20474;-57
2022/05/04 09:23:54;;;;;;;1.77;1.67;;;24.30;48.00;;;24.73;36.20;95099.81;5061285;28;20452;-57
2022/05/04 09:26:21;;;;;;;1.23;1.13;;;24.40;48.00;;;24.80;35.17;95094.34;5059286;28;20483;-56
2022/05/04 09:28:57;;;;;;;6.93;1.67;;;24.40;45.80;;;24.82;35.09;95097.66;5047748;28;20521;-58
2022/05/04 09:31:25;;;;;;;1.30;1.20;;;24.40;45.80;;;24.84;35.42;95092.88;5048685;28;20581;-58
2022/05/04 09:33:58;;;;;;;15.33;1.90;;;24.40;46.20;;;24.85;34.81;95091.84;5057977;28;20479;-57
2022/05/04 09:36:33;;;;;;;2.87;2.10;;;24.50;45.80;;;24.85;33.47;95078.38;5061576;28;20474;-58
2022/05/04 09:47:20;;;;;;;2.57;1.73;;;24.50;45.50;;;25.04;34.66;95071.91;5059998;28;20476;-58
2022/05/04 09:49:48;;;;;;;2.30;1.40;;;24.60;45.80;;;24.99;34.62;95071.78;5059252;28;20943;-57
2022/05/04 09:52:16;;;;;;;5.97;1.60;;;24.60;45.50;;;24.91;33.86;95064.03;5054079;28;20539;-57
2022/05/04 09:54:45;;;;;;;1.50;1.40;;;24.50;44.70;;;24.93;33.96;95061.91;5052047;28;20440;-56
2022/05/04 09:57:13;;;;;;;2.40;1.40;;;24.50;44.40;;;24.94;33.90;95062.72;5058884;28;20447;-58
2022/05/04 09:59:42;;;;;;;1.60;1.50;;;24.60;44.20;;;24.88;33.20;95059.09;5056346;28;20513;-57
2022/05/04 10:02:10;;;;;;;2.73;1.90;;;24.50;42.90;;;24.79;33.31;95060.44;5056703;28;20952;-58
2022/05/04 10:04:37;;;;;;;1.13;1.03;;;24.50;43.10;;;24.72;33.56;95060.50;5059952;28;20922;-58
2022/05/04 10:07:05;;;;;;;5.37;1.60;;;24.40;43.50;;;24.72;34.10;95054.31;5056899;28;20982;-56
2022/05/04 10:09:32;;;;;;;2.00;1.90;;;24.40;43.80;;;24.77;34.16;95051.75;5053497;28;20480;-57
2022/05/04 10:12:00;;;;;;;1.97;1.67;;;24.40;44.00;;;24.82;33.99;95057.31;5061846;28;20474;-56
2022/05/04 10:14:29;;;;;;;2.40;1.67;;;24.40;43.80;;;24.93;33.77;95053.03;5050492;28;20444;-59
2022/05/04 10:17:06;;;;;;;2.30;1.80;;;24.50;44.20;;;25.04;32.73;95042.31;5055069;28;20935;-59
2022/05/04 10:19:42;;;;;;;3.23;1.47;;;24.60;43.50;;;25.09;32.87;95043.53;5053600;28;21061;-59
2022/05/04 10:22:12;;;;;;;6.60;2.30;;;24.70;42.90;;;25.09;33.59;95036.25;5054279;28;20442;-57
2022/05/04 10:24:40;;;;;;;1.90;1.80;;;24.70;44.00;;;25.14;33.04;95033.69;5056717;28;20444;-57
2022/05/04 10:27:17;;;;;;;1.83;1.73;;;24.70;43.30;;;25.17;31.56;95027.84;5056538;28;20464;-57
2022/05/04 10:32:35;;;;;;;1.73;1.63;;;24.80;42.40;;;25.21;32.59;95025.56;5055122;28;20433;-58
2022/05/04 10:35:22;;;;;;;3.10;1.50;;;24.80;42.80;;;25.17;32.14;95018.97;5053625;28;20532;-59
2022/05/04 10:38:18;;;;;;;4.83;1.50;;;24.80;42.70;;;25.09;31.99;95022.00;5056193;28;20447;-57
2022/05/04 10:40:51;;;;;;;3.07;1.80;;;24.70;42.50;;;24.93;31.44;95023.44;5056329;28;20470;-56
2022/05/04 10:43:33;;;;;;;2.90;1.73;;;24.60;41.70;;;24.70;32.62;95020.38;5049167;28;20488;-58
2022/05/04 10:46:06;;;;;;;4.87;2.17;;;24.40;42.00;;;24.54;32.71;95031.72;5058326;28;20550;-58
2022/05/04 10:48:35;;;;;;;10.70;2.00;;;24.20;42.40;;;24.41;33.16;95023.75;5058032;28;20508;-59
2022/05/04 10:51:12;;;;;;;3.27;1.67;;;24.10;42.90;;;24.28;32.82;95022.84;5058407;28;20478;-57
2022/05/04 10:53:44;;;;;;;4.30;1.90;;;23.90;42.70;;;24.14;32.26;95015.97;5051141;28;20454;-58
2022/05/04 10:56:15;;;;;;;6.73;2.77;;;23.80;42.10;;;24.08;32.92;95011.47;5055238;28;20536;-56
2022/05/04 10:58:49;;;;;;;7.63;2.20;;;23.70;43.00;;;24.08;32.86;95008.78;5054671;28;20528;-57
2022/05/04 11:01:22;;;;;;;4.27;2.27;;;23.70;42.40;;;24.08;32.99;95003.41;5054370;28;20473;-58
2022/05/04 11:04:14;;;;;;;3.57;1.87;;;23.70;43.10;;;24.07;33.33;95001.75;5055711;28;20963;-58
2022/05/04 11:06:43;;;;;;;6.83;2.37;;;23.70;42.80;;;24.02;33.46;94996.22;5054500;28;20503;-57